Time;durP1;ratioP1;P1;durP2;ratioP2;P2;SDS_P1;SDS_P2;PMS_P1;PMS_P2;Temp;Humidity;BMP_temperature;BMP_pressure;BME280_temperature;BME280_humidity;BME280_pressure;Samples;Min_cycle;Max_cycle;Signal;HPM_P1;HPM_P2
2023/07/25 00:01:28;;;;;;;7.47;4.60;;;13.10;99.90;;;;;;5063807;28;20131;-73
2023/07/25 00:03:53;;;;;;;10.07;4.72;;;13.10;99.90;;;;;;5049121;28;20068;-73
2023/07/25 00:06:19;;;;;;;8.63;4.50;;;13.10;99.90;;;;;;5059190;28;20067;-73
2023/07/25 00:08:45;;;;;;;9.38;4.25;;;13.10;99.90;;;;;;5067773;28;20120;-73
2023/07/25 00:11:15;;;;;;;12.10;5.00;;;13.00;99.90;;;;;;5065134;28;20044;-73
2023/07/25 00:13:41;;;;;;;10.35;5.15;;;13.00;99.90;;;;;;5045008;28;20403;-73
2023/07/25 00:16:06;;;;;;;11.57;5.13;;;13.00;99.90;;;;;;5054165;28;20055;-73
2023/07/25 00:18:32;;;;;;;7.65;4.13;;;12.90;99.90;;;;;;5055280;28;20057;-73
2023/07/25 00:20:58;;;;;;;8.25;4.65;;;12.90;99.90;;;;;;5062530;28;20040;-73
2023/07/25 00:23:24;;;;;;;8.45;4.70;;;12.80;99.90;;;;;;5050003;28;20131;-73
2023/07/25 00:25:49;;;;;;;9.88;4.60;;;12.80;99.90;;;;;;5062799;28;20516;-73
2023/07/25 00:28:15;;;;;;;7.68;4.20;;;12.70;99.90;;;;;;5044362;28;20048;-73
2023/07/25 00:30:41;;;;;;;8.75;4.55;;;12.70;99.90;;;;;;5069027;28;20045;-73
2023/07/25 00:33:07;;;;;;;7.22;4.60;;;12.60;99.90;;;;;;5062021;28;20055;-73
2023/07/25 00:35:38;;;;;;;10.80;5.60;;;12.60;99.90;;;;;;5066548;28;20462;-73
2023/07/25 00:38:04;;;;;;;10.48;5.32;;;12.50;99.90;;;;;;5046546;28;20395;-73
2023/07/25 00:40:30;;;;;;;8.05;4.50;;;12.50;99.90;;;;;;5056550;28;20045;-73
2023/07/25 00:43:00;;;;;;;9.80;5.00;;;12.50;99.90;;;;;;5057683;28;20045;-73
2023/07/25 00:45:25;;;;;;;7.45;4.80;;;12.50;99.90;;;;;;5065738;28;20045;-73
2023/07/25 00:47:52;;;;;;;9.93;5.10;;;12.40;99.90;;;;;;5058508;28;20052;-73
2023/07/25 00:50:18;;;;;;;9.07;4.45;;;12.40;99.90;;;;;;5045793;28;20114;-73
2023/07/25 00:52:44;;;;;;;8.40;4.38;;;12.30;99.90;;;;;;5041879;28;20458;-73
2023/07/25 00:55:11;;;;;;;10.68;5.00;;;12.30;99.90;;;;;;5069826;28;20067;-72
2023/07/25 00:57:36;;;;;;;9.80;5.63;;;12.30;99.90;;;;;;5044015;28;20141;-73
2023/07/25 01:00:03;;;;;;;10.07;5.22;;;12.30;99.90;;;;;;5062190;28;20064;-73
2023/07/25 01:02:29;;;;;;;7.38;4.40;;;12.30;99.90;;;;;;5056810;28;20052;-72
2023/07/25 01:04:55;;;;;;;8.65;4.93;;;12.30;99.90;;;;;;5047658;28;20118;-72
2023/07/25 01:07:21;;;;;;;10.55;5.50;;;12.30;99.90;;;;;;5074646;28;20094;-72
2023/07/25 01:09:47;;;;;;;9.20;4.60;;;12.30;99.90;;;;;;5060489;28;20044;-73
2023/07/25 01:12:13;;;;;;;12.35;5.57;;;12.30;99.90;;;;;;5066151;28;20041;-73
2023/07/25 01:14:39;;;;;;;10.38;5.20;;;12.30;99.90;;;;;;5060038;28;20509;-72
2023/07/25 01:17:18;;;;;;;7.97;4.47;;;12.30;99.90;;;;;;5065914;28;20036;-73
2023/07/25 01:19:46;;;;;;;10.10;5.70;;;12.30;99.90;;;;;;5049627;28;20048;-72
2023/07/25 01:22:13;;;;;;;7.32;4.63;;;12.30;99.90;;;;;;5047058;28;20079;-72
2023/07/25 01:24:46;;;;;;;10.77;5.32;;;12.20;99.90;;;;;;5037078;28;20052;-72
2023/07/25 01:27:14;;;;;;;10.02;4.50;;;12.20;99.90;;;;;;5046512;28;20048;-73
2023/07/25 01:29:39;;;;;;;8.40;4.95;;;12.20;99.90;;;;;;5055732;28;20101;-72
2023/07/25 01:32:06;;;;;;;8.63;4.55;;;12.20;99.90;;;;;;5042177;28;21457;-74
2023/07/25 01:34:32;;;;;;;8.38;4.88;;;12.20;99.90;;;;;;5058016;28;20098;-73
2023/07/25 01:36:57;;;;;;;9.88;5.00;;;12.20;99.90;;;;;;5058795;28;20545;-73
2023/07/25 01:39:23;;;;;;;9.70;4.65;;;12.20;99.90;;;;;;5041614;28;20225;-72
2023/07/25 01:41:49;;;;;;;9.05;4.38;;;12.20;99.90;;;;;;5045199;28;20854;-73
2023/07/25 01:44:14;;;;;;;9.90;4.90;;;12.20;99.90;;;;;;5043325;28;20104;-72
2023/07/25 01:46:41;;;;;;;9.80;5.13;;;12.20;99.90;;;;;;5058295;28;20055;-72
2023/07/25 01:49:10;;;;;;;8.07;4.78;;;12.30;99.90;;;;;;5041767;28;20052;-72
2023/07/25 01:51:36;;;;;;;9.07;4.63;;;12.30;99.90;;;;;;5042809;28;20044;-73
2023/07/25 01:54:02;;;;;;;7.38;4.60;;;12.30;99.90;;;;;;5042142;28;20028;-73
2023/07/25 01:56:28;;;;;;;8.40;4.63;;;12.30;99.90;;;;;;5046676;28;20060;-73
2023/07/25 01:58:54;;;;;;;9.60;5.18;;;12.30;99.90;;;;;;5055841;28;20079;-73
2023/07/25 02:01:20;;;;;;;6.30;4.50;;;12.30;99.90;;;;;;5062717;28;20135;-72
2023/07/25 02:03:45;;;;;;;7.50;5.00;;;12.30;99.90;;;;;;5061862;28;20131;-72
2023/07/25 02:06:11;;;;;;;11.48;5.53;;;12.30;99.90;;;;;;5042962;28;20517;-73
2023/07/25 02:08:37;;;;;;;11.25;5.07;;;12.30;99.90;;;;;;5046743;28;20582;-73
2023/07/25 02:11:05;;;;;;;8.98;4.68;;;12.30;99.90;;;;;;5044463;28;20037;-72
2023/07/25 02:13:31;;;;;;;7.40;4.28;;;12.30;99.90;;;;;;5037406;28;20056;-73
2023/07/25 02:15:56;;;;;;;7.35;4.60;;;12.30;99.90;;;;;;5048091;28;20048;-72
2023/07/25 02:18:22;;;;;;;9.52;4.75;;;12.30;99.90;;;;;;5032398;28;20513;-73
2023/07/25 02:20:48;;;;;;;11.40;4.28;;;12.30;99.90;;;;;;5062122;28;20037;-72
2023/07/25 02:23:14;;;;;;;9.75;5.38;;;12.30;99.90;;;;;;5041296;28;20040;-72
2023/07/25 02:25:39;;;;;;;10.02;4.45;;;12.30;99.90;;;;;;5059475;28;20041;-72
2023/07/25 02:28:05;;;;;;;9.02;4.20;;;12.30;99.90;;;;;;5055574;28;20064;-72
2023/07/25 02:30:31;;;;;;;8.25;4.05;;;12.30;99.90;;;;;;5050184;28;20094;-72
2023/07/25 02:32:57;;;;;;;8.57;3.92;;;12.30;99.90;;;;;;5050290;28;20045;-72
2023/07/25 02:35:23;;;;;;;8.27;4.43;;;12.30;99.90;;;;;;5049685;28;20414;-72
2023/07/25 02:37:49;;;;;;;11.50;4.50;;;12.30;99.90;;;;;;5047244;28;20037;-74
2023/07/25 02:40:14;;;;;;;12.77;4.60;;;12.30;99.90;;;;;;5053779;28;20041;-74
2023/07/25 02:42:41;;;;;;;9.30;4.18;;;12.30;99.90;;;;;;5058227;28;20040;-74
2023/07/25 02:45:10;;;;;;;7.30;3.90;;;12.30;99.90;;;;;;5032782;28;20048;-74
2023/07/25 02:47:36;;;;;;;12.98;5.97;;;12.20;99.90;;;;;;5035579;28;20307;-74
2023/07/25 02:50:02;;;;;;;12.43;6.10;;;12.30;99.90;;;;;;5053803;28;20040;-72
2023/07/25 02:52:28;;;;;;;10.55;4.40;;;12.20;99.90;;;;;;5053467;28;20076;-73
2023/07/25 02:54:53;;;;;;;8.23;4.20;;;12.20;99.90;;;;;;5037358;28;20052;-74
2023/07/25 02:57:19;;;;;;;9.88;5.40;;;12.30;99.90;;;;;;5032040;28;20333;-73
2023/07/25 02:59:45;;;;;;;9.00;4.53;;;12.20;99.90;;;;;;5063173;28;20491;-74
2023/07/25 03:02:10;;;;;;;7.38;3.85;;;12.20;99.90;;;;;;5055748;28;20041;-73
2023/07/25 03:04:36;;;;;;;12.23;5.28;;;12.20;99.90;;;;;;5047414;28;20048;-74
2023/07/25 03:07:02;;;;;;;9.40;4.40;;;12.20;99.90;;;;;;5049186;28;20101;-73
2023/07/25 03:09:30;;;;;;;7.55;3.63;;;12.20;99.90;;;;;;5051169;28;20045;-72
2023/07/25 03:11:55;;;;;;;11.35;5.40;;;12.20;99.90;;;;;;5065463;28;20051;-73
2023/07/25 03:14:21;;;;;;;8.25;3.90;;;12.20;99.90;;;;;;5075058;28;20036;-73
2023/07/25 03:16:51;;;;;;;8.23;3.87;;;12.20;99.90;;;;;;5071062;28;20040;-73
2023/07/25 03:19:16;;;;;;;6.88;4.28;;;12.10;99.90;;;;;;5068363;28;20367;-72
2023/07/25 03:21:42;;;;;;;7.40;4.85;;;12.20;99.90;;;;;;5056554;28;20054;-73
2023/07/25 03:24:08;;;;;;;8.20;5.00;;;12.20;99.90;;;;;;5067268;28;20044;-73
2023/07/25 03:26:34;;;;;;;7.15;4.53;;;12.20;99.90;;;;;;5061254;28;20122;-73
2023/07/25 03:28:59;;;;;;;11.38;4.75;;;12.20;99.90;;;;;;5047939;28;20039;-74
2023/07/25 03:31:25;;;;;;;10.40;5.97;;;12.20;99.90;;;;;;5064615;28;20047;-72
2023/07/25 03:33:52;;;;;;;9.15;4.65;;;12.20;99.90;;;;;;5064534;28;20410;-72
2023/07/25 03:36:17;;;;;;;8.77;5.68;;;12.30;99.90;;;;;;5048747;28;20533;-73
2023/07/25 03:38:43;;;;;;;11.27;5.28;;;12.30;99.90;;;;;;5066601;28;20040;-72
2023/07/25 03:41:09;;;;;;;12.07;6.47;;;12.40;99.90;;;;;;5070984;28;20048;-72
2023/07/25 03:43:35;;;;;;;17.98;7.78;;;12.40;99.90;;;;;;5064684;28;20044;-73
2023/07/25 03:46:00;;;;;;;18.02;7.82;;;12.40;99.90;;;;;;5070379;28;20086;-73
2023/07/25 03:48:26;;;;;;;9.88;5.50;;;12.40;99.90;;;;;;5066979;28;20051;-72
2023/07/25 03:50:52;;;;;;;11.13;5.63;;;12.50;99.90;;;;;;5069983;28;20040;-73
2023/07/25 03:53:18;;;;;;;11.45;5.40;;;12.50;99.90;;;;;;5047891;28;20047;-73
2023/07/25 03:55:43;;;;;;;9.18;5.30;;;12.50;99.90;;;;;;5062777;28;20051;-73
2023/07/25 03:58:09;;;;;;;8.38;4.50;;;12.50;99.90;;;;;;5063943;28;20394;-73
2023/07/25 04:00:35;;;;;;;7.82;4.82;;;12.60;99.90;;;;;;5041738;28;20080;-73
2023/07/25 04:03:00;;;;;;;10.35;5.28;;;12.60;99.90;;;;;;5047218;28;20388;-73
2023/07/25 04:05:26;;;;;;;11.05;5.38;;;12.60;99.90;;;;;;5057305;28;20055;-74
2023/07/25 04:07:52;;;;;;;11.05;5.30;;;12.60;99.90;;;;;;5066414;28;20044;-74
2023/07/25 04:10:18;;;;;;;9.55;4.88;;;12.60;99.90;;;;;;5046325;28;20041;-74
2023/07/25 04:12:43;;;;;;;17.60;6.90;;;12.60;99.90;;;;;;5051667;28;20060;-71
2023/07/25 04:15:10;;;;;;;11.73;5.75;;;12.60;99.90;;;;;;5049921;28;20075;-71
2023/07/25 04:17:36;;;;;;;9.95;5.80;;;12.70;99.90;;;;;;5055583;28;20060;-73
2023/07/25 04:20:02;;;;;;;9.63;4.88;;;12.70;99.90;;;;;;5051193;28;20563;-73
2023/07/25 04:22:28;;;;;;;9.18;4.20;;;12.60;99.90;;;;;;5055544;28;20666;-73
2023/07/25 04:24:54;;;;;;;11.10;4.97;;;12.60;99.90;;;;;;5033755;28;20064;-73
2023/07/25 04:27:20;;;;;;;7.68;4.50;;;12.60;99.90;;;;;;5049176;28;20492;-73
2023/07/25 04:29:45;;;;;;;8.57;4.00;;;12.60;99.90;;;;;;5047023;28;20048;-72
2023/07/25 04:32:11;;;;;;;14.50;6.00;;;12.60;99.90;;;;;;5037896;28;20052;-73
2023/07/25 04:34:37;;;;;;;9.32;4.10;;;12.60;99.90;;;;;;5055410;28;20135;-73
2023/07/25 04:37:03;;;;;;;9.13;4.70;;;12.60;99.90;;;;;;5053926;28;20040;-73
2023/07/25 04:39:29;;;;;;;9.20;4.40;;;12.60;99.90;;;;;;5055386;28;20194;-73
2023/07/25 04:41:55;;;;;;;6.85;3.45;;;12.60;99.90;;;;;;5059221;28;20036;-73
2023/07/25 04:44:20;;;;;;;8.45;4.68;;;12.60;99.90;;;;;;5053059;28;20106;-73
2023/07/25 04:46:46;;;;;;;7.32;3.92;;;12.50;99.90;;;;;;5050189;28;20124;-73
2023/07/25 04:49:12;;;;;;;8.00;4.15;;;12.60;99.90;;;;;;5064352;28;20155;-73
2023/07/25 04:51:39;;;;;;;10.50;4.32;;;12.60;99.90;;;;;;5060862;28;20045;-73
2023/07/25 04:54:05;;;;;;;9.02;3.97;;;12.60;99.90;;;;;;5054691;28;20044;-73
2023/07/25 04:56:31;;;;;;;13.80;5.20;;;12.60;99.90;;;;;;5049667;28;20079;-73
2023/07/25 04:58:57;;;;;;;8.18;4.20;;;12.50;99.90;;;;;;5043495;28;20041;-73
2023/07/25 05:01:23;;;;;;;12.18;5.45;;;12.60;99.90;;;;;;5053807;28;20545;-73
2023/07/25 05:03:48;;;;;;;10.30;4.72;;;12.60;99.90;;;;;;5046290;28;20160;-73
2023/07/25 05:06:14;;;;;;;10.18;4.28;;;12.60;99.90;;;;;;5039944;28;20041;-73
2023/07/25 05:08:40;;;;;;;8.20;3.78;;;12.60;99.90;;;;;;5040174;28;20067;-73
2023/07/25 05:11:06;;;;;;;7.55;4.30;;;12.70;99.90;;;;;;5047883;28;20475;-73
2023/07/25 05:13:32;;;;;;;9.40;5.10;;;12.70;99.90;;;;;;5043121;28;20095;-73
2023/07/25 05:15:58;;;;;;;8.98;4.70;;;12.70;99.90;;;;;;5063508;28;20465;-73
2023/07/25 05:18:24;;;;;;;10.50;4.80;;;12.80;99.90;;;;;;5036286;28;20051;-72
2023/07/25 05:20:49;;;;;;;11.98;6.22;;;12.80;99.90;;;;;;5051939;28;20053;-72
2023/07/25 05:23:15;;;;;;;8.90;5.03;;;12.80;99.90;;;;;;5051822;28;20056;-72
2023/07/25 05:25:42;;;;;;;9.43;4.78;;;12.90;99.90;;;;;;5045037;28;20072;-72
2023/07/25 05:28:08;;;;;;;13.85;6.07;;;12.90;99.90;;;;;;5037550;28;20033;-72
2023/07/25 05:30:34;;;;;;;10.18;4.80;;;12.90;99.90;;;;;;5046768;28;20094;-72
2023/07/25 05:33:03;;;;;;;9.40;5.60;;;13.00;99.90;;;;;;5063472;28;20052;-73
2023/07/25 05:35:29;;;;;;;10.50;4.28;;;13.00;99.90;;;;;;5037648;28;20041;-72
2023/07/25 05:37:55;;;;;;;10.13;4.63;;;13.00;99.90;;;;;;5052162;28;20055;-72
2023/07/25 05:40:21;;;;;;;8.30;4.55;;;13.00;99.90;;;;;;5059257;28;20045;-72
2023/07/25 05:42:47;;;;;;;8.45;4.60;;;13.00;99.90;;;;;;5046359;28;20056;-72
2023/07/25 05:45:13;;;;;;;11.38;5.20;;;13.00;99.90;;;;;;5051601;28;20123;-74
2023/07/25 05:47:39;;;;;;;11.77;4.20;;;13.00;99.90;;;;;;5057963;28;20100;-72
2023/07/25 05:50:06;;;;;;;10.70;4.07;;;13.10;99.90;;;;;;5054471;28;20582;-73
2023/07/25 05:52:31;;;;;;;8.65;4.20;;;13.10;99.90;;;;;;5054385;28;20505;-72
2023/07/25 05:54:57;;;;;;;11.25;4.70;;;13.20;99.90;;;;;;5053885;28;20052;-72
2023/07/25 05:57:23;;;;;;;10.23;3.55;;;13.30;99.90;;;;;;5047081;28;20056;-72
2023/07/25 05:59:49;;;;;;;10.02;3.88;;;13.30;99.90;;;;;;5059908;28;20673;-73
2023/07/25 06:02:16;;;;;;;9.27;3.95;;;13.40;99.90;;;;;;5057065;28;20052;-76
2023/07/25 06:04:45;;;;;;;12.93;4.32;;;13.40;99.90;;;;;;5062112;28;20554;-74
2023/07/25 06:07:15;;;;;;;8.63;4.15;;;13.50;99.90;;;;;;5061149;28;20052;-74
2023/07/25 06:09:41;;;;;;;8.30;3.75;;;13.50;99.90;;;;;;5057474;28;20041;-75
2023/07/25 06:12:08;;;;;;;12.85;3.80;;;13.60;99.90;;;;;;5051602;28;20048;-74
2023/07/25 06:14:34;;;;;;;7.47;2.83;;;13.60;99.90;;;;;;5040854;28;20107;-75
2023/07/25 06:17:00;;;;;;;9.07;3.40;;;13.70;99.90;;;;;;5047225;28;20042;-75
2023/07/25 06:19:26;;;;;;;8.68;3.08;;;13.80;99.90;;;;;;5064585;28;20499;-74
2023/07/25 06:21:51;;;;;;;9.88;2.80;;;13.80;99.90;;;;;;5058181;28;20047;-75
2023/07/25 06:24:17;;;;;;;9.18;3.00;;;13.90;99.90;;;;;;5044658;28;20044;-75
2023/07/25 06:26:43;;;;;;;7.40;2.90;;;13.90;99.90;;;;;;5062076;28;20076;-75
2023/07/25 06:29:08;;;;;;;6.85;2.30;;;14.00;99.90;;;;;;5041616;28;20443;-74
2023/07/25 06:31:35;;;;;;;8.60;2.90;;;14.00;99.90;;;;;;5062315;28;20055;-75
2023/07/25 06:34:01;;;;;;;8.55;2.22;;;14.00;99.90;;;;;;5043870;28;20036;-74
2023/07/25 06:36:27;;;;;;;9.02;2.42;;;14.10;99.90;;;;;;5070538;28;20044;-74
2023/07/25 06:38:52;;;;;;;7.22;2.00;;;14.10;99.90;;;;;;5062857;28;20187;-74
2023/07/25 06:41:18;;;;;;;10.60;2.20;;;14.20;99.90;;;;;;5046752;28;20048;-74
2023/07/25 06:43:44;;;;;;;7.22;2.45;;;14.20;99.90;;;;;;5061947;28;20134;-74
2023/07/25 06:46:10;;;;;;;7.93;2.60;;;14.30;99.90;;;;;;5059127;28;20090;-75
2023/07/25 06:48:35;;;;;;;8.23;2.10;;;14.40;99.90;;;;;;5059043;28;20044;-74
2023/07/25 06:51:01;;;;;;;6.82;2.15;;;14.40;99.90;;;;;;5060583;28;20155;-74
2023/07/25 06:53:27;;;;;;;7.47;2.35;;;14.50;99.90;;;;;;5041575;28;20041;-74
2023/07/25 06:55:53;;;;;;;6.55;1.75;;;14.60;99.90;;;;;;5053990;28;20059;-75
2023/07/25 06:58:19;;;;;;;6.45;1.40;;;14.80;99.90;;;;;;5058105;28;20048;-75
2023/07/25 07:00:46;;;;;;;7.28;1.77;;;14.90;99.90;;;;;;5039257;28;20045;-75
2023/07/25 07:03:12;;;;;;;5.95;1.92;;;14.90;99.90;;;;;;5063116;28;20040;-75
2023/07/25 07:05:38;;;;;;;6.53;1.67;;;15.00;99.90;;;;;;5051543;28;20114;-75
2023/07/25 07:08:04;;;;;;;7.95;1.67;;;15.00;99.90;;;;;;5040278;28;20516;-75
2023/07/25 07:10:32;;;;;;;8.90;1.75;;;15.10;99.90;;;;;;5051552;28;20415;-75
2023/07/25 07:12:58;;;;;;;6.65;1.45;;;15.20;99.90;;;;;;5040214;28;20088;-75
2023/07/25 07:15:26;;;;;;;5.82;1.15;;;15.40;99.90;;;;;;5055339;28;20045;-76
2023/07/25 07:17:53;;;;;;;5.07;1.40;;;15.50;99.90;;;;;;5046422;28;20048;-75
2023/07/25 07:20:19;;;;;;;9.30;1.27;;;15.60;99.90;;;;;;5049139;28;20127;-75
2023/07/25 07:22:45;;;;;;;3.75;0.85;;;15.70;99.90;;;;;;5030618;28;20410;-75
2023/07/25 07:25:11;;;;;;;8.07;1.35;;;15.80;99.90;;;;;;5032460;28;20041;-75
2023/07/25 07:27:40;;;;;;;5.13;1.30;;;16.00;99.90;;;;;;5050476;28;20063;-76
2023/07/25 07:30:06;;;;;;;5.78;1.05;;;16.10;99.90;;;;;;5062996;28;20043;-76
2023/07/25 07:32:32;;;;;;;4.43;0.93;;;16.20;99.90;;;;;;5049070;28;20045;-76
2023/07/25 07:34:58;;;;;;;4.30;0.80;;;16.30;99.90;;;;;;5057809;28;20500;-75
2023/07/25 07:37:23;;;;;;;4.57;1.08;;;16.50;99.90;;;;;;5044261;28;20402;-76
2023/07/25 07:39:49;;;;;;;4.15;0.82;;;16.70;99.90;;;;;;5050016;28;20444;-75
2023/07/25 07:42:15;;;;;;;6.32;0.80;;;16.80;99.90;;;;;;5054610;28;20048;-75
2023/07/25 07:44:40;;;;;;;3.40;0.75;;;16.90;99.90;;;;;;5049895;28;20049;-76
2023/07/25 07:47:06;;;;;;;5.80;0.90;;;16.90;99.90;;;;;;5047906;28;20037;-75
2023/07/25 07:49:33;;;;;;;5.63;1.00;;;17.10;99.90;;;;;;5036476;28;20041;-75
2023/07/25 07:51:59;;;;;;;4.20;0.90;;;17.10;99.90;;;;;;5049726;28;20113;-75
2023/07/25 07:54:25;;;;;;;4.53;0.80;;;17.20;99.90;;;;;;5052590;28;20449;-75
2023/07/25 07:56:51;;;;;;;5.20;0.90;;;17.30;99.90;;;;;;5064743;28;20067;-76
2023/07/25 07:59:16;;;;;;;5.07;0.93;;;17.50;99.90;;;;;;5041710;28;20052;-75
2023/07/25 08:01:42;;;;;;;5.93;1.20;;;17.60;99.90;;;;;;5053948;28;20095;-75
2023/07/25 08:04:08;;;;;;;4.65;1.08;;;17.70;99.90;;;;;;5041102;28;20040;-75
2023/07/25 08:06:34;;;;;;;4.97;0.90;;;17.70;99.90;;;;;;5048004;28;20079;-76
2023/07/25 08:09:00;;;;;;;5.22;0.65;;;17.80;99.90;;;;;;5038100;28;20058;-75
2023/07/25 08:11:25;;;;;;;4.57;1.40;;;17.90;99.90;;;;;;5062012;28;20056;-75
2023/07/25 08:13:51;;;;;;;4.63;1.00;;;17.90;99.90;;;;;;5057616;28;20439;-75
2023/07/25 08:16:17;;;;;;;4.03;0.80;;;17.90;99.90;;;;;;5058743;28;20821;-75
2023/07/25 08:18:46;;;;;;;4.25;0.75;;;17.80;99.90;;;;;;5047848;28;20036;-75
2023/07/25 08:21:11;;;;;;;3.78;0.60;;;17.80;99.90;;;;;;5053463;28;20068;-75
2023/07/25 08:23:37;;;;;;;4.85;0.95;;;17.70;99.90;;;;;;5053332;28;20045;-75
2023/07/25 08:26:03;;;;;;;7.03;1.13;;;17.80;99.90;;;;;;5054843;28;20063;-75
2023/07/25 08:28:29;;;;;;;4.85;0.80;;;17.80;99.90;;;;;;5042721;28;20135;-75
2023/07/25 08:30:59;;;;;;;6.13;1.00;;;17.80;99.90;;;;;;5033317;28;20045;-75
2023/07/25 08:33:26;;;;;;;4.07;0.80;;;17.80;99.90;;;;;;5057691;28;20420;-75
2023/07/25 08:35:54;;;;;;;7.50;0.85;;;17.70;99.90;;;;;;5055637;28;20044;-75
2023/07/25 08:38:20;;;;;;;4.60;1.20;;;17.60;99.90;;;;;;5053460;28;20045;-76
2023/07/25 08:40:49;;;;;;;2.13;0.60;;;17.70;99.90;;;;;;5051259;28;20045;-75
2023/07/25 08:43:20;;;;;;;6.28;1.10;;;17.90;99.90;;;;;;5046394;28;20119;-75
2023/07/25 08:45:49;;;;;;;4.57;0.70;;;18.10;99.90;;;;;;5046482;28;20049;-75
2023/07/25 08:48:15;;;;;;;6.57;0.70;;;18.30;99.90;;;;;;5048373;28;20182;-75
2023/07/25 08:50:46;;;;;;;4.22;0.90;;;18.50;99.90;;;;;;5056192;28;20567;-75
2023/07/25 08:53:15;;;;;;;3.92;0.90;;;18.60;99.90;;;;;;5036786;28;20052;-75
2023/07/25 08:55:40;;;;;;;4.88;0.88;;;18.80;99.90;;;;;;5060579;28;20064;-75
2023/07/25 08:58:06;;;;;;;2.50;0.60;;;18.90;99.90;;;;;;5057178;28;20072;-75
2023/07/25 09:00:34;;;;;;;7.20;1.13;;;18.80;99.90;;;;;;5058213;28;20041;-74
2023/07/25 09:03:00;;;;;;;3.45;0.70;;;18.80;99.90;;;;;;5052005;28;20542;-75
2023/07/25 09:05:28;;;;;;;3.10;0.82;;;18.90;99.90;;;;;;5043804;28;20523;-75
2023/07/25 09:07:58;;;;;;;2.85;0.60;;;19.00;99.90;;;;;;5048534;28;20455;-75
2023/07/25 09:10:27;;;;;;;3.00;0.70;;;19.10;99.90;;;;;;5056024;28;20052;-75
2023/07/25 09:12:54;;;;;;;3.55;0.60;;;19.30;99.90;;;;;;5055302;28;20510;-75
2023/07/25 09:15:20;;;;;;;4.03;0.80;;;19.40;99.90;;;;;;5040650;28;20045;-75
2023/07/25 09:17:46;;;;;;;4.40;0.80;;;19.60;99.90;;;;;;5053723;28;20794;-75
2023/07/25 09:20:12;;;;;;;5.40;0.90;;;19.50;99.50;;;;;;5034305;28;20063;-75
2023/07/25 09:22:38;;;;;;;4.50;0.93;;;19.40;99.90;;;;;;5050215;28;20470;-75
2023/07/25 09:25:08;;;;;;;6.57;0.93;;;19.40;99.90;;;;;;5047901;28;20111;-75
2023/07/25 09:27:34;;;;;;;6.28;0.90;;;19.30;99.90;;;;;;5044125;28;20513;-75
2023/07/25 09:30:00;;;;;;;3.92;0.73;;;19.30;99.90;;;;;;5056073;28;20499;-75
2023/07/25 09:32:27;;;;;;;3.28;0.60;;;19.10;99.90;;;;;;5064344;28;20076;-75
2023/07/25 09:35:06;;;;;;;3.10;0.68;;;19.00;99.90;;;;;;5055795;28;20410;-75
2023/07/25 09:37:32;;;;;;;4.20;0.70;;;19.10;99.90;;;;;;5039020;28;20044;-75
2023/07/25 09:39:58;;;;;;;3.30;0.70;;;19.30;99.90;;;;;;5053229;28;20346;-74
2023/07/25 09:42:25;;;;;;;4.38;0.68;;;19.50;99.90;;;;;;5058572;28;20045;-74
2023/07/25 09:44:52;;;;;;;3.25;0.68;;;19.80;99.90;;;;;;5049406;28;20491;-74
2023/07/25 09:47:28;;;;;;;5.43;0.70;;;19.90;99.90;;;;;;5051024;28;20048;-74
2023/07/25 09:49:56;;;;;;;4.13;0.80;;;19.80;99.90;;;;;;5049852;28;21983;-74
2023/07/25 09:52:22;;;;;;;3.25;0.82;;;19.70;99.90;;;;;;5050823;28;20036;-74
2023/07/25 09:54:49;;;;;;;3.22;0.80;;;19.70;99.10;;;;;;5054498;28;20447;-75
2023/07/25 09:57:15;;;;;;;4.07;0.70;;;19.80;98.60;;;;;;5058908;28;20503;-75
2023/07/25 09:59:42;;;;;;;2.22;0.57;;;19.80;96.80;;;;;;5038916;28;20601;-74
2023/07/25 10:02:11;;;;;;;2.42;0.60;;;19.80;96.90;;;;;;5047752;28;20048;-74
2023/07/25 10:04:38;;;;;;;3.10;0.70;;;19.80;99.00;;;;;;5046202;28;20696;-75
2023/07/25 10:07:05;;;;;;;2.88;0.90;;;19.80;99.90;;;;;;5039326;28;20033;-75
2023/07/25 10:09:31;;;;;;;4.30;1.08;;;19.80;99.90;;;;;;5060566;28;20072;-76
2023/07/25 10:11:57;;;;;;;5.00;1.00;;;19.60;99.90;;;;;;5044540;28;20051;-76
2023/07/25 10:14:23;;;;;;;3.28;0.85;;;19.40;99.90;;;;;;5054082;28;20040;-74
2023/07/25 10:16:50;;;;;;;3.40;0.82;;;19.30;99.90;;;;;;5051941;28;20037;-74
2023/07/25 10:19:16;;;;;;;3.17;0.80;;;19.40;99.90;;;;;;5050241;28;20060;-75
2023/07/25 10:21:52;;;;;;;4.43;1.05;;;19.40;99.90;;;;;;5031764;28;20502;-75
2023/07/25 10:24:21;;;;;;;2.95;0.90;;;19.50;99.90;;;;;;5044179;28;20131;-75
2023/07/25 10:27:00;;;;;;;2.58;0.60;;;19.60;99.90;;;;;;5049826;28;20098;-75
2023/07/25 10:29:46;;;;;;;6.50;1.20;;;19.80;99.90;;;;;;5050743;28;20682;-75
2023/07/25 10:32:19;;;;;;;5.00;1.13;;;19.90;99.90;;;;;;5059000;28;20315;-75
2023/07/25 10:34:51;;;;;;;4.05;0.90;;;19.80;99.90;;;;;;5054310;28;20052;-75
2023/07/25 10:37:22;;;;;;;4.22;1.00;;;19.60;99.90;;;;;;5060310;28;20043;-75
2023/07/25 10:40:03;;;;;;;4.38;0.90;;;19.50;99.90;;;;;;5045894;28;20037;-75
2023/07/25 10:42:44;;;;;;;5.47;1.10;;;19.60;99.90;;;;;;5054730;28;20048;-75
2023/07/25 10:45:29;;;;;;;3.78;1.00;;;19.60;99.90;;;;;;5061936;28;20147;-75
2023/07/25 10:47:56;;;;;;;3.40;0.85;;;19.70;99.90;;;;;;5047120;28;20538;-75
2023/07/25 10:50:26;;;;;;;5.25;1.20;;;19.70;99.90;;;;;;5040998;28;20052;-75
2023/07/25 10:52:52;;;;;;;3.97;1.40;;;19.80;99.90;;;;;;5059764;28;20073;-75
2023/07/25 10:55:18;;;;;;;4.90;1.02;;;19.90;99.90;;;;;;5053857;28;20466;-74
2023/07/25 10:58:07;;;;;;;5.82;1.23;;;20.10;99.90;;;;;;5040758;28;20040;-75
2023/07/25 11:00:35;;;;;;;4.35;0.95;;;20.30;99.90;;;;;;5054654;28;20059;-75
2023/07/25 11:03:34;;;;;;;6.90;1.10;;;20.50;99.90;;;;;;5038134;28;20722;-75
2023/07/25 11:06:11;;;;;;;3.60;0.85;;;20.70;99.90;;;;;;5041724;28;20660;-75
2023/07/25 11:08:39;;;;;;;3.35;0.73;;;20.80;99.80;;;;;;5038033;28;20152;-75
2023/07/25 11:11:07;;;;;;;3.08;0.70;;;20.60;98.40;;;;;;5041488;28;20124;-75
2023/07/25 11:13:35;;;;;;;4.25;0.73;;;20.60;97.20;;;;;;5055965;28;20048;-74
2023/07/25 11:16:05;;;;;;;5.90;1.10;;;20.50;95.90;;;;;;5047531;28;20059;-74
2023/07/25 11:18:37;;;;;;;6.03;1.10;;;20.60;97.50;;;;;;5033080;28;20041;-74
2023/07/25 11:21:12;;;;;;;4.20;0.95;;;20.70;98.90;;;;;;5055916;28;20445;-74
2023/07/25 11:23:38;;;;;;;2.95;0.80;;;20.90;97.40;;;;;;5039395;28;20103;-74
2023/07/25 11:26:07;;;;;;;3.60;0.77;;;21.00;96.70;;;;;;5054225;28;20131;-74
2023/07/25 11:28:34;;;;;;;4.60;0.75;;;21.20;96.20;;;;;;5059503;28;20061;-74
2023/07/25 11:30:59;;;;;;;2.72;0.70;;;21.20;93.80;;;;;;5042763;28;20051;-74
2023/07/25 11:33:25;;;;;;;3.30;1.00;;;21.10;93.30;;;;;;5045796;28;20131;-74
2023/07/25 11:35:53;;;;;;;4.72;0.80;;;21.00;92.70;;;;;;5034157;28;20064;-74
2023/07/25 11:38:19;;;;;;;3.67;0.70;;;20.90;95.30;;;;;;5050348;28;20051;-74
2023/07/25 11:40:50;;;;;;;3.13;0.70;;;20.70;94.80;;;;;;5055719;28;20041;-74
2023/07/25 11:43:17;;;;;;;4.35;0.70;;;20.60;95.30;;;;;;5046987;28;20063;-75
2023/07/25 11:45:45;;;;;;;3.78;1.10;;;20.40;94.20;;;;;;5054032;28;20415;-74
2023/07/25 11:48:13;;;;;;;3.28;0.55;;;20.20;93.70;;;;;;5047577;28;20057;-74
2023/07/25 11:50:42;;;;;;;3.30;0.70;;;20.00;94.20;;;;;;5040680;28;20503;-74
2023/07/25 11:53:09;;;;;;;4.90;1.00;;;19.90;95.80;;;;;;5040075;28;20484;-75
2023/07/25 11:55:35;;;;;;;4.20;0.68;;;19.70;96.00;;;;;;5063265;28;20445;-75
2023/07/25 11:58:02;;;;;;;4.22;0.95;;;19.60;96.20;;;;;;5058172;28;20040;-74
2023/07/25 12:00:39;;;;;;;3.72;0.63;;;19.50;96.80;;;;;;5054502;28;20045;-75
2023/07/25 12:03:19;;;;;;;3.10;0.70;;;19.40;97.60;;;;;;5058016;28;20526;-75
2023/07/25 12:05:54;;;;;;;;;;;19.40;97.80;;;;;;5064398;28;20311;-75
2023/07/25 12:08:33;;;;;;;3.15;1.10;;;19.30;98.80;;;;;;5046866;28;19920;-74
2023/07/25 12:11:01;;;;;;;3.97;0.97;;;19.30;96.60;;;;;;5037452;28;20048;-74
2023/07/25 12:13:27;;;;;;;6.45;0.82;;;19.30;97.70;;;;;;5038961;28;20331;-74
2023/07/25 12:15:56;;;;;;;3.90;0.75;;;19.40;99.00;;;;;;5047564;28;20088;-74
2023/07/25 12:18:26;;;;;;;2.72;0.82;;;19.50;99.00;;;;;;5057650;28;20037;-74
2023/07/25 12:20:52;;;;;;;;;;;19.50;97.20;;;;;;5040080;28;20143;-74
2023/07/25 12:23:25;;;;;;;2.42;1.00;;;19.50;99.20;;;;;;5053401;28;19928;-75
2023/07/25 12:25:50;;;;;;;3.10;0.90;;;19.60;99.70;;;;;;5060396;28;20048;-74
2023/07/25 12:28:17;;;;;;;3.53;0.82;;;19.60;98.70;;;;;;5054277;28;20374;-75
2023/07/25 12:30:42;;;;;;;4.22;0.82;;;19.60;98.00;;;;;;5065133;28;20079;-74
2023/07/25 12:33:08;;;;;;;4.10;0.98;;;19.60;97.80;;;;;;5054075;28;20075;-74
2023/07/25 12:35:34;;;;;;;2.75;0.60;;;19.60;96.40;;;;;;5049805;28;20993;-74
2023/07/25 12:38:00;;;;;;;2.85;0.65;;;19.70;96.40;;;;;;5051659;28;20670;-75
2023/07/25 12:40:25;;;;;;;2.53;0.70;;;19.90;98.80;;;;;;5062300;28;20044;-75
2023/07/25 12:42:51;;;;;;;3.15;0.70;;;20.20;96.80;;;;;;5048707;28;20048;-75
2023/07/25 12:45:18;;;;;;;3.10;0.90;;;20.50;97.10;;;;;;5042856;28;20049;-75